Weather at Buckelew Farm Landing Field

Public forecast

Using degrees Fahrenheit for public forecast. Weather courtesy of forecast.io.

Closest aviation weather report (METAR) to Buckelew Farm Landing Field

Report is more than 2 hours old.

Closest report is Ryan Field, 8.8 nm (16.4 km) ENE. Retrieved 2022/01/22 18:45 UTC (3 hours ago):

KRYN 221845Z 27004KT 10SM FEW120 14/M03 A2997

Closest aviation forecast (TAF) to Buckelew Farm Landing Field

Closest forecast is Tucson International Airport / Morris Air National Guard Base, 20.1 nm (37.3 km) E. Retrieved 2022/01/22 18:22 UTC (3 hours ago):

TAF KTUS 221720Z 2218/2318 14010G17KT P6SM FEW120 SCT250 FM230000 20010G17KT P6SM VCSH FEW090 SCT100 FM230600 13007KT P6SM FEW070 SCT250 FM231200 13007KT P6SM VCSH FEW120 SCT250